Time;durP1;ratioP1;P1;durP2;ratioP2;P2;SDS_P1;SDS_P2;PMS_P1;PMS_P2;Temp;Humidity;BMP_temperature;BMP_pressure;BME280_temperature;BME280_humidity;BME280_pressure;Samples;Min_cycle;Max_cycle;Signal;HPM_P1;HPM_P2
2021/03/25 00:00:41;;;;;;;72.87;41.17;;;8.80;98.30;;;;;;5068129;23;20455;-80
2021/03/25 00:02:44;;;;;;;75.27;41.37;;;8.80;98.30;;;;;;5068440;23;20448;-80
2021/03/25 00:04:46;;;;;;;88.67;43.00;;;8.80;98.30;;;;;;5077626;23;20842;-80
2021/03/25 00:06:51;;;;;;;78.53;41.67;;;8.80;98.30;;;;;;5069273;23;20482;-80
2021/03/25 00:08:54;;;;;;;80.47;42.80;;;8.80;98.30;;;;;;5068322;23;20476;-80
2021/03/25 00:10:56;;;;;;;70.53;42.20;;;8.80;98.30;;;;;;5067949;23;20460;-80
2021/03/25 00:12:59;;;;;;;76.20;42.60;;;8.70;98.30;;;;;;5068806;23;20500;-80
2021/03/25 00:15:01;;;;;;;78.03;42.63;;;8.60;98.30;;;;;;5077726;23;20468;-80
2021/03/25 00:17:03;;;;;;;75.67;41.03;;;8.50;98.30;;;;;;5070088;23;20458;-80
2021/03/25 00:19:07;;;;;;;73.13;40.20;;;8.50;98.30;;;;;;5069389;23;20808;-80
2021/03/25 00:21:10;;;;;;;76.63;42.07;;;8.40;98.30;;;;;;5078803;23;20498;-80
2021/03/25 00:23:12;;;;;;;75.73;41.37;;;8.40;98.30;;;;;;5069979;23;20470;-80
2021/03/25 00:25:17;;;;;;;72.80;40.57;;;8.40;98.30;;;;;;5071146;23;20423;-80
2021/03/25 00:27:19;;;;;;;81.63;42.63;;;8.30;98.30;;;;;;5068895;23;20430;-80
2021/03/25 00:29:21;;;;;;;76.00;38.53;;;8.20;98.30;;;;;;5068369;23;20888;-80
2021/03/25 00:31:23;;;;;;;76.73;43.10;;;8.10;98.30;;;;;;5068581;23;21035;-80
2021/03/25 00:33:25;;;;;;;77.33;42.50;;;8.10;98.30;;;;;;5068844;23;20459;-81
2021/03/25 00:35:30;;;;;;;81.97;40.80;;;8.10;98.30;;;;;;5069232;23;20431;-80
2021/03/25 00:37:32;;;;;;;66.93;40.93;;;8.10;98.30;;;;;;5068300;23;20521;-80
2021/03/25 00:39:33;;;;;;;78.40;42.33;;;8.10;98.30;;;;;;5070059;23;20460;-80
2021/03/25 00:41:35;;;;;;;74.27;42.07;;;8.10;98.30;;;;;;5071014;23;20444;-80
2021/03/25 00:43:37;;;;;;;76.40;42.60;;;8.10;98.30;;;;;;5071284;23;20462;-80
2021/03/25 00:45:41;;;;;;;78.10;41.40;;;8.10;98.30;;;;;;5070931;23;20456;-80
2021/03/25 00:47:43;;;;;;;93.20;42.20;;;8.00;98.30;;;;;;5069431;23;20513;-80
2021/03/25 00:49:46;;;;;;;81.97;42.07;;;8.00;98.30;;;;;;5077120;23;20484;-80
2021/03/25 00:51:49;;;;;;;86.23;41.80;;;7.90;98.30;;;;;;5068562;23;20434;-80
2021/03/25 00:53:50;;;;;;;95.60;43.63;;;7.90;98.30;;;;;;5068800;23;20458;-79
2021/03/25 00:55:53;;;;;;;83.90;42.00;;;7.80;98.30;;;;;;5068007;23;20434;-80
2021/03/25 00:57:55;;;;;;;86.00;42.30;;;7.80;98.30;;;;;;5076211;23;20465;-80
2021/03/25 00:59:56;;;;;;;82.43;43.57;;;7.70;98.30;;;;;;5066986;23;20430;-81
2021/03/25 01:02:00;;;;;;;92.97;44.23;;;7.80;98.30;;;;;;5067906;23;20426;-80
2021/03/25 01:04:02;;;;;;;83.13;42.87;;;7.70;98.30;;;;;;5068546;23;20463;-80
2021/03/25 01:06:04;;;;;;;81.43;41.23;;;7.60;98.30;;;;;;5067592;23;20437;-80
2021/03/25 01:08:08;;;;;;;82.90;40.70;;;7.70;98.30;;;;;;5075014;23;20456;-80
2021/03/25 01:10:17;;;;;;;81.50;42.53;;;7.80;98.30;;;;;;5075531;23;20450;-80
2021/03/25 01:12:19;;;;;;;80.43;42.20;;;7.90;98.30;;;;;;5068589;23;20464;-80
2021/03/25 01:14:23;;;;;;;82.00;44.03;;;8.00;98.30;;;;;;5068638;23;20431;-80
2021/03/25 01:16:27;;;;;;;81.57;41.53;;;8.00;98.30;;;;;;5064199;23;20470;-80
2021/03/25 01:18:30;;;;;;;79.20;42.50;;;8.10;98.30;;;;;;5071422;23;20768;-82
2021/03/25 01:20:38;;;;;;;76.13;42.17;;;8.20;98.30;;;;;;5062221;23;20430;-80
2021/03/25 01:22:40;;;;;;;81.33;42.07;;;8.20;98.30;;;;;;5071032;23;20462;-81
2021/03/25 01:24:42;;;;;;;69.63;42.00;;;8.20;98.30;;;;;;5062476;23;20466;-82
2021/03/25 01:26:44;;;;;;;83.97;42.50;;;8.30;98.30;;;;;;5063492;23;20438;-80
2021/03/25 01:28:46;;;;;;;65.03;38.07;;;8.30;98.30;;;;;;5062935;23;20459;-83
2021/03/25 01:30:49;;;;;;;79.83;41.17;;;8.30;98.30;;;;;;5062721;23;20441;-81
2021/03/25 01:32:51;;;;;;;69.93;41.00;;;8.30;98.30;;;;;;5063337;23;20466;-79
2021/03/25 01:34:53;;;;;;;74.93;39.30;;;8.20;98.30;;;;;;5063645;23;20591;-80
2021/03/25 01:36:54;;;;;;;74.00;39.77;;;8.20;98.30;;;;;;5063378;23;20762;-80
2021/03/25 01:38:56;;;;;;;74.43;39.13;;;8.10;98.30;;;;;;5063045;23;20469;-83
2021/03/25 01:41:01;;;;;;;77.40;41.97;;;8.00;98.30;;;;;;5063160;23;20963;-81
2021/03/25 01:43:23;;;;;;;80.87;41.50;;;8.00;98.30;;;;;;5063510;23;20843;-80
2021/03/25 01:45:46;;;;;;;76.97;39.77;;;7.90;98.30;;;;;;5063522;23;20458;-80
2021/03/25 01:47:47;;;;;;;74.20;41.33;;;7.90;98.30;;;;;;5063589;23;20453;-80
2021/03/25 01:49:50;;;;;;;76.17;41.70;;;7.90;98.30;;;;;;5070934;23;21044;-79
2021/03/25 01:52:02;;;;;;;72.37;38.57;;;7.90;98.30;;;;;;5063466;23;20499;-80
2021/03/25 01:54:45;;;;;;;73.47;38.40;;;8.00;98.30;;;;;;5063754;23;20422;-79
2021/03/25 01:57:02;;;;;;;77.30;39.10;;;8.00;98.30;;;;;;5063119;23;20508;-81
2021/03/25 01:59:44;;;;;;;66.07;37.67;;;7.90;98.30;;;;;;5062187;23;20451;-80
2021/03/25 02:01:52;;;;;;;79.33;39.80;;;7.90;98.30;;;;;;5051388;23;20434;-81
2021/03/25 02:04:15;;;;;;;77.80;40.30;;;7.90;98.30;;;;;;5069167;23;20941;-80
2021/03/25 02:06:25;;;;;;;73.23;38.70;;;7.90;98.30;;;;;;5064127;23;21024;-80
2021/03/25 02:08:37;;;;;;;75.63;39.47;;;7.80;98.30;;;;;;5071679;23;20419;-80
2021/03/25 02:10:49;;;;;;;79.73;41.70;;;7.80;98.30;;;;;;5070664;23;20955;-80
2021/03/25 02:13:02;;;;;;;88.47;41.13;;;7.70;98.30;;;;;;5063137;23;20483;-80
2021/03/25 02:15:08;;;;;;;74.60;40.87;;;7.70;98.30;;;;;;5063553;23;20451;-80
2021/03/25 02:17:14;;;;;;;82.73;41.57;;;7.60;98.30;;;;;;5063559;23;20459;-79
2021/03/25 02:19:30;;;;;;;76.13;40.40;;;7.50;98.30;;;;;;5070841;23;20456;-82
2021/03/25 02:21:53;;;;;;;84.27;41.57;;;7.50;98.30;;;;;;5062960;23;20456;-80
2021/03/25 02:24:20;;;;;;;85.10;40.27;;;7.50;98.30;;;;;;5062935;23;20471;-79
2021/03/25 02:26:30;;;;;;;77.60;37.70;;;7.50;98.30;;;;;;5063144;23;20487;-81
2021/03/25 02:28:45;;;;;;;77.27;42.57;;;7.50;98.30;;;;;;5063389;23;20532;-81
2021/03/25 02:30:59;;;;;;;76.17;39.83;;;7.40;98.30;;;;;;5071785;23;20458;-81
2021/03/25 02:33:04;;;;;;;80.40;41.13;;;7.50;98.30;;;;;;5062952;23;20467;-81
2021/03/25 02:35:14;;;;;;;84.93;40.23;;;7.40;98.30;;;;;;5062666;23;20459;-79
2021/03/25 02:37:19;;;;;;;73.87;41.00;;;7.40;98.30;;;;;;5062739;23;20962;-80
2021/03/25 02:39:28;;;;;;;90.43;43.33;;;7.40;98.30;;;;;;5062455;23;20462;-82
2021/03/25 02:41:48;;;;;;;75.00;39.43;;;7.50;98.30;;;;;;5063324;23;20464;-79
2021/03/25 02:43:56;;;;;;;76.53;39.93;;;7.50;98.30;;;;;;5063113;23;20475;-79
2021/03/25 02:46:02;;;;;;;91.57;43.30;;;7.50;98.30;;;;;;5063497;23;20463;-80
2021/03/25 02:48:09;;;;;;;76.50;38.93;;;7.50;98.30;;;;;;5063394;23;20457;-80
2021/03/25 02:50:18;;;;;;;81.87;40.83;;;7.50;98.30;;;;;;5063063;23;20436;-80
2021/03/25 02:52:24;;;;;;;76.63;38.90;;;7.50;98.30;;;;;;5062984;23;20456;-79
2021/03/25 02:54:26;;;;;;;80.87;40.97;;;7.50;98.30;;;;;;5071064;23;20477;-79
2021/03/25 02:56:33;;;;;;;78.07;39.83;;;7.50;98.30;;;;;;5063480;23;20518;-79
2021/03/25 02:58:36;;;;;;;79.53;37.90;;;7.60;98.30;;;;;;5062355;23;20460;-80
2021/03/25 03:00:42;;;;;;;79.93;39.77;;;7.60;98.30;;;;;;5061592;23;20456;-79
2021/03/25 03:02:49;;;;;;;79.43;39.30;;;7.60;98.30;;;;;;5062810;23;20435;-80
2021/03/25 03:04:57;;;;;;;76.63;38.30;;;7.50;98.30;;;;;;5063404;23;21099;-80
2021/03/25 03:07:04;;;;;;;83.80;43.13;;;7.60;98.30;;;;;;5063221;23;20525;-79
2021/03/25 03:09:10;;;;;;;72.40;36.30;;;7.60;98.30;;;;;;5062696;23;20456;-79
2021/03/25 03:11:17;;;;;;;72.37;38.63;;;7.70;98.30;;;;;;5070578;23;20806;-79
2021/03/25 03:13:21;;;;;;;79.93;39.57;;;7.70;98.30;;;;;;5062586;23;20455;-79
2021/03/25 03:15:27;;;;;;;80.00;39.03;;;7.70;98.30;;;;;;5062685;23;20535;-79
2021/03/25 03:17:32;;;;;;;80.83;38.47;;;7.70;98.30;;;;;;5062158;23;20460;-79
2021/03/25 03:19:40;;;;;;;72.67;39.63;;;7.70;98.30;;;;;;5061542;23;20782;-78
2021/03/25 03:21:46;;;;;;;80.27;40.00;;;7.70;98.30;;;;;;5062292;23;20478;-79
2021/03/25 03:23:48;;;;;;;81.47;40.13;;;7.70;98.30;;;;;;5070300;23;20939;-80
2021/03/25 03:25:50;;;;;;;71.53;36.30;;;7.70;98.30;;;;;;5063045;23;20427;-80
2021/03/25 03:27:58;;;;;;;72.90;36.90;;;7.70;98.30;;;;;;5063435;23;20430;-80
2021/03/25 03:30:06;;;;;;;79.60;41.87;;;7.70;98.30;;;;;;5062899;23;20456;-80
2021/03/25 03:32:16;;;;;;;87.03;45.63;;;7.70;98.30;;;;;;5062927;23;20459;-80
2021/03/25 03:34:21;;;;;;;67.97;39.40;;;7.80;98.30;;;;;;5070663;23;20971;-82
2021/03/25 03:36:25;;;;;;;80.17;40.80;;;7.80;98.30;;;;;;5070519;23;20521;-81
2021/03/25 03:38:35;;;;;;;80.90;37.57;;;7.80;98.30;;;;;;5062851;23;20467;-81
2021/03/25 03:40:40;;;;;;;67.10;36.63;;;7.80;98.30;;;;;;5062507;23;20828;-81
2021/03/25 03:42:44;;;;;;;62.23;35.57;;;7.80;98.30;;;;;;5071464;23;20456;-81
2021/03/25 03:44:49;;;;;;;70.40;37.37;;;7.80;98.30;;;;;;5063162;23;20460;-81
2021/03/25 03:46:52;;;;;;;66.97;38.30;;;7.80;98.30;;;;;;5070270;23;20463;-80
2021/03/25 03:48:58;;;;;;;97.77;53.50;;;7.80;98.30;;;;;;5061857;23;20567;-81
2021/03/25 03:51:03;;;;;;;70.57;36.90;;;7.80;98.30;;;;;;5063412;23;20449;-80
2021/03/25 03:53:06;;;;;;;78.57;38.33;;;7.80;98.30;;;;;;5063074;23;20974;-80
2021/03/25 03:55:12;;;;;;;65.10;35.13;;;7.80;98.30;;;;;;5062761;23;21022;-80
2021/03/25 03:57:19;;;;;;;66.63;35.83;;;7.80;98.30;;;;;;5062400;23;20761;-79
2021/03/25 03:59:26;;;;;;;68.93;36.73;;;7.80;98.30;;;;;;5062385;23;20460;-80
2021/03/25 04:01:36;;;;;;;64.17;36.00;;;7.80;98.30;;;;;;5070793;23;20525;-80
2021/03/25 04:03:42;;;;;;;68.43;36.33;;;7.70;98.30;;;;;;5062616;23;20463;-79
2021/03/25 04:05:50;;;;;;;78.73;37.87;;;7.70;98.30;;;;;;5062320;23;20456;-78
2021/03/25 04:07:57;;;;;;;71.73;36.40;;;7.70;98.30;;;;;;5062671;23;20451;-80
2021/03/25 04:10:08;;;;;;;71.60;35.80;;;7.70;98.30;;;;;;5070312;23;20456;-79
2021/03/25 04:12:14;;;;;;;66.50;36.87;;;7.70;98.30;;;;;;5062630;23;20542;-80
2021/03/25 04:14:20;;;;;;;69.63;36.63;;;7.70;98.30;;;;;;5062303;23;21018;-82
2021/03/25 04:16:24;;;;;;;67.53;35.37;;;7.80;98.30;;;;;;5062840;23;20458;-81
2021/03/25 04:18:34;;;;;;;72.40;35.87;;;7.70;98.30;;;;;;5062579;23;20459;-81
2021/03/25 04:20:40;;;;;;;74.73;36.10;;;7.90;98.30;;;;;;5061928;23;20465;-81
2021/03/25 04:22:46;;;;;;;62.07;35.60;;;7.90;98.30;;;;;;5062267;23;20438;-81
2021/03/25 04:25:00;;;;;;;69.97;35.73;;;7.90;98.30;;;;;;5062461;23;20506;-79
2021/03/25 04:27:08;;;;;;;67.63;34.47;;;7.90;98.30;;;;;;5070241;23;20587;-80
2021/03/25 04:29:15;;;;;;;69.77;36.43;;;7.90;98.30;;;;;;5061494;23;20431;-80
2021/03/25 04:31:17;;;;;;;70.60;37.80;;;8.00;98.30;;;;;;5064744;23;20457;-79
2021/03/25 04:33:21;;;;;;;63.90;36.23;;;8.00;98.30;;;;;;5072750;23;20453;-80
2021/03/25 04:35:24;;;;;;;66.10;36.90;;;7.90;98.30;;;;;;5064801;23;20427;-80
2021/03/25 04:37:28;;;;;;;68.97;37.00;;;7.90;98.30;;;;;;5073579;23;20522;-79
2021/03/25 04:39:32;;;;;;;68.97;37.00;;;7.90;98.30;;;;;;5064804;23;20430;-79
2021/03/25 04:41:36;;;;;;;68.57;37.57;;;7.90;98.30;;;;;;5064945;23;20441;-80
2021/03/25 04:43:39;;;;;;;74.27;35.57;;;7.90;98.30;;;;;;5064486;23;20457;-79
2021/03/25 04:45:48;;;;;;;70.63;34.73;;;7.90;98.30;;;;;;5072998;23;21406;-79
2021/03/25 04:47:53;;;;;;;69.47;35.83;;;7.90;98.30;;;;;;5064971;23;20456;-78
2021/03/25 04:50:00;;;;;;;63.63;35.87;;;8.00;98.30;;;;;;5064629;23;20426;-79
2021/03/25 04:52:03;;;;;;;66.97;36.77;;;8.00;98.30;;;;;;5065370;23;20492;-79
2021/03/25 04:54:12;;;;;;;73.83;38.37;;;8.00;98.30;;;;;;5073977;23;20466;-80
2021/03/25 04:56:17;;;;;;;68.80;36.47;;;8.00;98.30;;;;;;5065872;23;20430;-80
2021/03/25 04:58:26;;;;;;;68.83;34.50;;;7.90;98.30;;;;;;5066177;23;20802;-80
2021/03/25 05:00:32;;;;;;;72.37;34.37;;;7.90;98.30;;;;;;5065492;23;20495;-79
2021/03/25 05:02:39;;;;;;;64.27;37.13;;;7.90;98.30;;;;;;5066630;23;20469;-79
2021/03/25 05:04:44;;;;;;;77.23;35.20;;;7.90;98.30;;;;;;5076214;23;20452;-78
2021/03/25 05:06:48;;;;;;;70.63;38.60;;;7.90;98.30;;;;;;5075306;23;20466;-78
2021/03/25 05:08:54;;;;;;;77.53;37.20;;;7.90;98.30;;;;;;5088013;23;20444;-77
2021/03/25 05:11:04;;;;;;;75.40;37.20;;;7.90;98.30;;;;;;5080750;23;20458;-80
2021/03/25 05:13:07;;;;;;;63.47;35.70;;;7.80;98.30;;;;;;5066655;23;20467;-80
2021/03/25 05:15:13;;;;;;;70.30;36.30;;;7.80;98.30;;;;;;5066703;23;20438;-80
2021/03/25 05:17:28;;;;;;;79.67;41.30;;;7.90;98.30;;;;;;5074997;23;20458;-79
2021/03/25 05:19:37;;;;;;;78.33;37.50;;;7.90;98.30;;;;;;5066646;23;20519;-79
2021/03/25 05:21:46;;;;;;;292.73;155.97;;;8.00;98.30;;;;;;5075196;23;20433;-79
2021/03/25 05:23:57;;;;;;;86.70;39.37;;;7.90;98.30;;;;;;5155235;22;20488;-79
2021/03/25 05:26:05;;;;;;;69.17;34.13;;;8.00;98.30;;;;;;5217903;22;20945;-79
2021/03/25 05:28:15;;;;;;;64.87;34.30;;;8.10;98.30;;;;;;5217872;22;20424;-78
2021/03/25 05:30:20;;;;;;;67.33;34.37;;;8.10;98.30;;;;;;5217499;22;20457;-79
2021/03/25 05:32:27;;;;;;;69.30;32.87;;;8.10;98.30;;;;;;5217738;22;20750;-79
2021/03/25 05:34:32;;;;;;;59.70;32.83;;;8.20;98.30;;;;;;5201193;22;20443;-79
2021/03/25 05:36:35;;;;;;;62.50;33.67;;;8.20;98.30;;;;;;5200839;22;20451;-78
2021/03/25 05:38:37;;;;;;;61.37;33.63;;;8.20;98.30;;;;;;5192390;22;20432;-79
2021/03/25 05:40:45;;;;;;;66.80;34.70;;;8.20;98.30;;;;;;5200347;22;20508;-78
2021/03/25 05:42:57;;;;;;;67.37;34.73;;;8.20;98.30;;;;;;5193230;22;20425;-79
2021/03/25 05:45:39;;;;;;;58.97;28.60;;;8.30;98.30;;;;;;5202129;22;20918;-78
2021/03/25 05:47:52;;;;;;;61.40;30.67;;;8.20;98.30;;;;;;5186547;22;20465;-78
2021/03/25 05:50:06;;;;;;;58.63;31.20;;;8.20;98.30;;;;;;5192925;22;20500;-78
2021/03/25 05:52:23;;;;;;;67.67;33.13;;;8.20;98.30;;;;;;5193372;22;20477;-79
2021/03/25 05:54:38;;;;;;;64.67;32.90;;;8.30;98.30;;;;;;5201172;22;20825;-79
2021/03/25 05:56:54;;;;;;;58.53;32.00;;;8.20;98.30;;;;;;5193817;22;20458;-78
2021/03/25 05:59:00;;;;;;;63.80;34.27;;;8.30;98.30;;;;;;5192695;22;20734;-79
2021/03/25 06:01:17;;;;;;;64.23;31.83;;;8.40;98.30;;;;;;5192460;22;20910;-79
2021/03/25 06:03:21;;;;;;;67.83;32.87;;;8.50;98.30;;;;;;5191906;22;20480;-79
2021/03/25 06:05:24;;;;;;;65.40;31.70;;;8.50;98.30;;;;;;5201345;22;20941;-78
2021/03/25 06:07:48;;;;;;;65.10;34.20;;;8.50;98.30;;;;;;5192754;22;20458;-79
2021/03/25 06:10:03;;;;;;;67.60;32.70;;;8.50;98.30;;;;;;5192307;22;20428;-79
2021/03/25 06:12:12;;;;;;;70.43;32.57;;;8.60;98.30;;;;;;5193328;22;20428;-79
2021/03/25 06:14:44;;;;;;;60.70;31.80;;;8.60;98.30;;;;;;5192926;22;20432;-79
2021/03/25 06:17:01;;;;;;;67.60;31.20;;;8.60;98.30;;;;;;5193472;22;20422;-79
2021/03/25 06:19:50;;;;;;;65.23;33.70;;;8.60;98.30;;;;;;5200847;22;20429;-79
2021/03/25 06:22:06;;;;;;;59.70;29.23;;;8.50;98.30;;;;;;5175110;22;20474;-79
2021/03/25 06:24:22;;;;;;;56.47;29.87;;;8.50;98.30;;;;;;5173278;22;20448;-79
2021/03/25 06:26:34;;;;;;;61.07;28.90;;;8.60;98.30;;;;;;5167672;22;20497;-79
2021/03/25 06:28:40;;;;;;;54.33;29.17;;;8.70;98.30;;;;;;5176367;22;20415;-79
2021/03/25 06:30:45;;;;;;;48.57;29.73;;;8.60;98.30;;;;;;5166652;22;20864;-79
2021/03/25 06:32:55;;;;;;;53.40;28.63;;;8.60;98.30;;;;;;5175570;22;20429;-79
2021/03/25 06:35:01;;;;;;;57.87;30.70;;;8.70;98.30;;;;;;5168423;22;20457;-79
2021/03/25 06:37:12;;;;;;;54.13;29.87;;;8.70;98.30;;;;;;5175824;22;20420;-79
2021/03/25 06:39:25;;;;;;;55.30;31.03;;;8.80;98.30;;;;;;5166595;22;20459;-79
2021/03/25 06:41:32;;;;;;;58.93;30.03;;;8.80;98.30;;;;;;5168098;22;20562;-79
2021/03/25 06:43:39;;;;;;;57.40;32.37;;;8.80;98.30;;;;;;5167797;22;20872;-79
2021/03/25 06:45:46;;;;;;;59.57;28.80;;;8.80;98.30;;;;;;5170409;22;20454;-79
2021/03/25 06:47:53;;;;;;;62.17;30.87;;;8.80;98.30;;;;;;5169680;22;20788;-78
2021/03/25 06:49:58;;;;;;;56.60;30.13;;;8.70;98.30;;;;;;5165883;22;20430;-79
2021/03/25 06:52:08;;;;;;;50.47;28.20;;;8.70;98.30;;;;;;5167680;22;20822;-79
2021/03/25 06:54:16;;;;;;;56.67;27.90;;;8.60;98.30;;;;;;5166548;23;20538;-79
2021/03/25 06:56:26;;;;;;;49.10;26.53;;;8.60;98.30;;;;;;5175404;22;20426;-79
2021/03/25 06:58:32;;;;;;;51.93;27.20;;;8.60;98.30;;;;;;5167487;22;20430;-79
2021/03/25 07:00:37;;;;;;;48.90;26.40;;;8.60;98.30;;;;;;5175445;22;20482;-79
2021/03/25 07:02:39;;;;;;;49.80;26.70;;;8.60;98.30;;;;;;5167776;22;20471;-79
2021/03/25 07:04:45;;;;;;;50.43;28.67;;;8.50;98.30;;;;;;5176444;22;20521;-79
2021/03/25 07:06:47;;;;;;;55.00;28.77;;;8.60;98.30;;;;;;5168063;23;20437;-79
2021/03/25 07:08:49;;;;;;;52.10;26.40;;;8.50;98.30;;;;;;5167101;22;20434;-79
2021/03/25 07:10:54;;;;;;;54.70;28.43;;;8.40;98.30;;;;;;5175713;22;20471;-79
2021/03/25 07:13:04;;;;;;;56.93;28.00;;;8.30;98.30;;;;;;5175465;22;20833;-78
2021/03/25 07:15:24;;;;;;;50.83;26.80;;;8.30;98.30;;;;;;5175896;22;20452;-78
2021/03/25 07:17:33;;;;;;;46.03;24.20;;;8.40;98.30;;;;;;5176235;22;21169;-80
2021/03/25 07:19:36;;;;;;;45.30;27.20;;;8.40;98.30;;;;;;5174749;22;20448;-79
2021/03/25 07:21:41;;;;;;;53.00;26.03;;;8.40;98.30;;;;;;5166736;22;20458;-80
2021/03/25 07:23:43;;;;;;;52.50;27.67;;;8.50;98.30;;;;;;5173616;22;20520;-79
2021/03/25 07:25:47;;;;;;;47.00;25.23;;;8.50;98.30;;;;;;5166184;23;20426;-80
2021/03/25 07:27:50;;;;;;;48.63;24.73;;;8.40;98.30;;;;;;5175700;22;20452;-80
2021/03/25 07:30:11;;;;;;;53.63;26.90;;;8.30;98.30;;;;;;5173791;22;20501;-82
2021/03/25 07:32:26;;;;;;;57.73;31.23;;;8.30;98.30;;;;;;5166213;22;20473;-79
2021/03/25 07:34:32;;;;;;;51.17;27.27;;;8.30;98.30;;;;;;5175385;22;20451;-80
2021/03/25 07:36:49;;;;;;;44.27;24.83;;;8.30;98.30;;;;;;5167826;22;20476;-79
2021/03/25 07:39:00;;;;;;;46.73;24.10;;;8.50;98.30;;;;;;5166907;22;20434;-79
2021/03/25 07:41:07;;;;;;;49.33;24.83;;;8.60;98.30;;;;;;5167162;22;20430;-79
2021/03/25 07:43:17;;;;;;;42.33;24.20;;;8.60;98.30;;;;;;5167827;22;20462;-80
2021/03/25 07:45:35;;;;;;;48.83;22.73;;;8.50;98.30;;;;;;5166457;22;20436;-79
2021/03/25 07:47:44;;;;;;;49.47;25.57;;;8.50;98.30;;;;;;5175301;22;20445;-79
2021/03/25 07:49:46;;;;;;;44.90;24.77;;;8.60;98.30;;;;;;5165746;22;20458;-79
2021/03/25 07:51:51;;;;;;;45.23;27.07;;;8.70;98.30;;;;;;5174697;22;20828;-79
2021/03/25 07:54:09;;;;;;;43.40;25.27;;;8.60;98.30;;;;;;5165635;22;20546;-79
2021/03/25 07:56:16;;;;;;;50.23;24.80;;;8.50;98.30;;;;;;5165762;23;20426;-79
2021/03/25 07:58:41;;;;;;;54.90;28.40;;;8.50;98.30;;;;;;5174038;22;20451;-79
2021/03/25 08:00:44;;;;;;;44.43;24.20;;;8.50;98.30;;;;;;5175412;22;20444;-79
2021/03/25 08:02:49;;;;;;;42.87;26.43;;;8.50;98.30;;;;;;5174915;22;20906;-79
2021/03/25 08:04:52;;;;;;;46.17;24.13;;;8.50;98.30;;;;;;5166502;22;20863;-79
2021/03/25 08:07:04;;;;;;;55.73;29.00;;;8.60;98.30;;;;;;5166327;22;21027;-78
2021/03/25 08:09:10;;;;;;;45.20;25.00;;;8.60;98.30;;;;;;5173913;22;20422;-79
2021/03/25 08:11:16;;;;;;;45.10;24.37;;;8.70;98.30;;;;;;5167004;22;20431;-79
2021/03/25 08:13:26;;;;;;;49.83;26.83;;;8.70;98.30;;;;;;5168898;22;20456;-79
2021/03/25 08:15:35;;;;;;;51.43;25.43;;;8.70;98.30;;;;;;5171313;22;21118;-79
2021/03/25 08:17:43;;;;;;;40.30;22.73;;;8.80;98.30;;;;;;5167282;22;20535;-79
2021/03/25 08:19:54;;;;;;;47.70;25.93;;;8.90;98.30;;;;;;5166566;22;20488;-79
2021/03/25 08:22:09;;;;;;;55.00;28.30;;;8.80;98.30;;;;;;5166923;22;21044;-79
2021/03/25 08:24:52;;;;;;;47.97;27.50;;;8.60;98.30;;;;;;5166029;22;20470;-79
2021/03/25 08:27:28;;;;;;;47.47;25.10;;;8.70;98.30;;;;;;5161253;22;20755;-79
2021/03/25 08:29:37;;;;;;;52.10;26.90;;;9.00;98.30;;;;;;5136814;22;20434;-79
2021/03/25 08:32:03;;;;;;;49.90;25.33;;;9.20;98.30;;;;;;5174073;22;20440;-80
2021/03/25 08:34:19;;;;;;;47.10;26.57;;;9.40;98.30;;;;;;5168020;22;21163;-79
2021/03/25 08:36:24;;;;;;;46.57;26.77;;;9.70;98.30;;;;;;5168561;22;20942;-79
2021/03/25 08:38:52;;;;;;;51.20;28.27;;;9.90;98.30;;;;;;5176439;22;20450;-80
2021/03/25 08:40:58;;;;;;;48.40;27.27;;;10.00;98.30;;;;;;5168643;22;20448;-79
2021/03/25 08:43:03;;;;;;;44.03;24.30;;;10.10;98.30;;;;;;5168108;22;20457;-79
2021/03/25 08:45:16;;;;;;;50.30;26.80;;;10.20;98.30;;;;;;5176742;22;20444;-79
2021/03/25 08:47:21;;;;;;;41.93;24.37;;;10.10;98.30;;;;;;5168596;22;20459;-80
2021/03/25 08:49:31;;;;;;;47.80;26.07;;;9.90;98.30;;;;;;5176000;22;20475;-79
2021/03/25 08:51:37;;;;;;;51.30;27.00;;;10.00;98.30;;;;;;5168495;22;20451;-79
2021/03/25 08:53:46;;;;;;;52.43;26.97;;;10.00;98.30;;;;;;5175581;22;20774;-80
2021/03/25 08:55:51;;;;;;;44.43;26.60;;;10.10;98.30;;;;;;5175918;22;20451;-79
2021/03/25 08:57:58;;;;;;;46.77;26.87;;;10.20;98.30;;;;;;5176515;22;20606;-79
2021/03/25 09:00:05;;;;;;;46.03;25.97;;;10.10;98.30;;;;;;5176330;22;20436;-79
2021/03/25 09:02:14;;;;;;;50.33;28.70;;;10.40;98.30;;;;;;5168717;22;20443;-80
2021/03/25 09:04:20;;;;;;;47.30;27.47;;;10.40;98.30;;;;;;5168341;22;20487;-80
2021/03/25 09:06:25;;;;;;;50.37;27.73;;;10.30;98.30;;;;;;5170768;22;20945;-79
2021/03/25 09:08:28;;;;;;;42.50;26.07;;;10.40;98.30;;;;;;5170206;22;20454;-79
2021/03/25 09:10:37;;;;;;;44.23;25.47;;;10.50;98.30;;;;;;5169870;22;20466;-79
2021/03/25 09:12:38;;;;;;;46.20;27.40;;;10.50;98.30;;;;;;5179196;22;20451;-79
2021/03/25 09:14:41;;;;;;;47.93;24.83;;;10.60;98.30;;;;;;5179207;22;20466;-79
2021/03/25 09:16:44;;;;;;;44.50;27.10;;;10.70;98.30;;;;;;5178908;22;20617;-80
2021/03/25 09:18:48;;;;;;;44.13;26.50;;;10.60;98.30;;;;;;5178399;22;20509;-80
2021/03/25 09:20:54;;;;;;;47.70;25.90;;;10.90;98.30;;;;;;5170568;22;20455;-80
2021/03/25 09:22:58;;;;;;;44.53;26.57;;;11.10;98.30;;;;;;5170393;22;20465;-80
2021/03/25 09:25:43;;;;;;;50.87;29.30;;;11.30;98.30;;;;;;5170283;22;20538;-80
2021/03/25 09:27:53;;;;;;;46.67;27.80;;;11.60;98.30;;;;;;5170289;22;20459;-79
2021/03/25 09:30:28;;;;;;;44.97;26.23;;;11.90;98.30;;;;;;5169947;22;20759;-79
2021/03/25 09:32:33;;;;;;;48.23;27.43;;;12.00;98.30;;;;;;5170993;22;20451;-80
2021/03/25 09:34:45;;;;;;;45.33;26.97;;;12.20;98.30;;;;;;5169036;22;20452;-80
2021/03/25 09:36:48;;;;;;;53.30;28.70;;;12.40;98.30;;;;;;5166033;22;20458;-79
2021/03/25 09:39:10;;;;;;;54.60;29.87;;;12.10;98.30;;;;;;5165549;22;20456;-80
2021/03/25 09:41:17;;;;;;;51.37;30.73;;;11.90;98.30;;;;;;5166997;22;20538;-80
2021/03/25 09:43:35;;;;;;;51.77;31.63;;;12.10;98.30;;;;;;5175185;22;20554;-80
2021/03/25 09:45:37;;;;;;;48.70;30.67;;;12.30;98.30;;;;;;5175544;22;20522;-80
2021/03/25 09:47:40;;;;;;;56.57;34.57;;;12.30;98.30;;;;;;5175518;22;20452;-80
2021/03/25 09:49:44;;;;;;;53.53;33.17;;;12.40;98.30;;;;;;5175724;22;20444;-80
2021/03/25 09:51:47;;;;;;;53.10;32.33;;;12.40;98.30;;;;;;5175381;22;20440;-80
2021/03/25 09:53:51;;;;;;;59.33;34.17;;;12.40;98.30;;;;;;5168468;22;20510;-80
2021/03/25 09:56:02;;;;;;;51.23;31.50;;;12.30;98.30;;;;;;5169185;22;20474;-80
2021/03/25 09:58:05;;;;;;;47.50;31.57;;;12.40;98.30;;;;;;5178392;22;20444;-80
2021/03/25 10:00:11;;;;;;;44.70;29.13;;;12.90;98.30;;;;;;5169053;22;20760;-80
2021/03/25 10:02:13;;;;;;;43.53;29.07;;;13.10;98.30;;;;;;5179329;22;20448;-80
2021/03/25 10:04:34;;;;;;;38.47;26.67;;;13.40;98.30;;;;;;5178061;22;20470;-80
2021/03/25 10:06:59;;;;;;;35.03;21.90;;;13.70;98.30;;;;;;5175013;22;20447;-80
2021/03/25 10:09:02;;;;;;;32.47;22.47;;;13.90;98.30;;;;;;5165910;22;20448;-80
2021/03/25 10:11:52;;;;;;;37.07;23.90;;;13.90;98.30;;;;;;5174651;22;20444;-80
2021/03/25 10:13:54;;;;;;;42.70;27.77;;;14.00;98.30;;;;;;5132328;22;20919;-80
2021/03/25 10:16:48;;;;;;;37.63;21.67;;;14.00;98.30;;;;;;5169586;22;20455;-80
2021/03/25 10:18:52;;;;;;;33.33;21.03;;;14.20;98.00;;;;;;5174039;22;20514;-80
2021/03/25 10:20:57;;;;;;;30.47;19.83;;;14.00;97.60;;;;;;5175626;22;20444;-80
2021/03/25 10:22:59;;;;;;;27.67;19.03;;;14.40;97.80;;;;;;5166940;22;20522;-80
2021/03/25 10:25:02;;;;;;;25.87;18.30;;;14.70;96.40;;;;;;5166956;22;20454;-80
2021/03/25 10:27:21;;;;;;;24.40;18.00;;;14.70;95.10;;;;;;5166870;22;20451;-80
2021/03/25 10:29:29;;;;;;;27.57;20.07;;;15.00;94.60;;;;;;5174500;22;20451;-80
2021/03/25 10:31:40;;;;;;;33.43;20.80;;;14.70;95.00;;;;;;5177427;22;20451;-80
2021/03/25 10:33:43;;;;;;;32.67;21.37;;;14.30;96.00;;;;;;5168394;22;20457;-80
2021/03/25 10:35:51;;;;;;;27.30;19.30;;;14.10;97.20;;;;;;5169630;22;20448;-80
2021/03/25 10:37:56;;;;;;;24.20;18.00;;;14.50;97.00;;;;;;5175440;22;20451;-80
2021/03/25 10:40:06;;;;;;;26.60;18.80;;;15.00;94.70;;;;;;5175378;22;20452;-80
2021/03/25 10:42:25;;;;;;;25.93;18.10;;;15.00;94.40;;;;;;5175516;22;20930;-80
2021/03/25 10:44:30;;;;;;;22.60;17.23;;;15.20;94.00;;;;;;5168021;22;20455;-80
2021/03/25 10:46:35;;;;;;;27.80;18.20;;;15.70;93.30;;;;;;5166973;22;20957;-80
2021/03/25 10:48:42;;;;;;;21.60;16.73;;;15.60;92.30;;;;;;5174917;22;20451;-81
2021/03/25 10:50:49;;;;;;;25.83;18.87;;;15.60;91.10;;;;;;5174435;22;20440;-80
2021/03/25 10:52:51;;;;;;;22.17;18.90;;;15.70;92.10;;;;;;5166008;22;20458;-80
2021/03/25 10:54:57;;;;;;;29.97;22.10;;;15.90;91.20;;;;;;5167019;22;20458;-80
2021/03/25 10:57:14;;;;;;;21.60;15.30;;;16.10;91.40;;;;;;5166515;22;20456;-81
2021/03/25 10:59:22;;;;;;;19.83;14.40;;;16.70;89.40;;;;;;5166563;22;20455;-80